sensor_id;sensor_type;location;lat;lon;timestamp;P1;durP1;ratioP1;P2;durP2;ratioP2
68583;SDS011;55557;49.220;11.150;2023-02-28T00:00:05;4.00;;;3.13;;
68583;SDS011;55557;49.220;11.150;2023-02-28T00:02:34;4.20;;;3.07;;
68583;SDS011;55557;49.220;11.150;2023-02-28T00:05:00;4.77;;;3.40;;
68583;SDS011;55557;49.220;11.150;2023-02-28T00:07:28;4.77;;;3.00;;
68583;SDS011;55557;49.220;11.150;2023-02-28T00:09:54;3.33;;;2.90;;
68583;SDS011;55557;49.220;11.150;2023-02-28T00:12:20;5.70;;;3.03;;
68583;SDS011;55557;49.220;11.150;2023-02-28T00:14:46;3.80;;;3.40;;
68583;SDS011;55557;49.220;11.150;2023-02-28T00:17:12;5.70;;;3.83;;
68583;SDS011;55557;49.220;11.150;2023-02-28T00:19:38;7.33;;;3.00;;
68583;SDS011;55557;49.220;11.150;2023-02-28T00:22:04;6.73;;;2.90;;
68583;SDS011;55557;49.220;11.150;2023-02-28T00:24:30;4.30;;;3.10;;
68583;SDS011;55557;49.220;11.150;2023-02-28T00:26:56;4.27;;;3.10;;
68583;SDS011;55557;49.220;11.150;2023-02-28T00:29:22;3.73;;;3.33;;
68583;SDS011;55557;49.220;11.150;2023-02-28T00:31:48;2.53;;;2.33;;
68583;SDS011;55557;49.220;11.150;2023-02-28T00:34:14;4.43;;;2.90;;
68583;SDS011;55557;49.220;11.150;2023-02-28T00:36:40;3.83;;;2.83;;
68583;SDS011;55557;49.220;11.150;2023-02-28T00:39:10;6.40;;;3.50;;
68583;SDS011;55557;49.220;11.150;2023-02-28T00:41:36;4.63;;;2.77;;
68583;SDS011;55557;49.220;11.150;2023-02-28T00:44:02;4.93;;;3.87;;
68583;SDS011;55557;49.220;11.150;2023-02-28T00:46:28;5.57;;;3.20;;
68583;SDS011;55557;49.220;11.150;2023-02-28T00:48:54;6.97;;;3.37;;
68583;SDS011;55557;49.220;11.150;2023-02-28T00:51:20;4.00;;;3.50;;
68583;SDS011;55557;49.220;11.150;2023-02-28T00:53:46;4.50;;;3.67;;
68583;SDS011;55557;49.220;11.150;2023-02-28T00:56:12;3.63;;;2.87;;
68583;SDS011;55557;49.220;11.150;2023-02-28T00:58:38;3.47;;;2.63;;
68583;SDS011;55557;49.220;11.150;2023-02-28T01:01:05;4.00;;;3.20;;
68583;SDS011;55557;49.220;11.150;2023-02-28T01:03:31;6.03;;;3.13;;
68583;SDS011;55557;49.220;11.150;2023-02-28T01:05:57;3.13;;;2.63;;
68583;SDS011;55557;49.220;11.150;2023-02-28T01:08:23;8.47;;;3.00;;
68583;SDS011;55557;49.220;11.150;2023-02-28T01:10:50;4.00;;;3.60;;
68583;SDS011;55557;49.220;11.150;2023-02-28T01:13:17;3.37;;;2.67;;
68583;SDS011;55557;49.220;11.150;2023-02-28T01:15:45;4.70;;;2.83;;
68583;SDS011;55557;49.220;11.150;2023-02-28T01:18:11;11.63;;;3.57;;
68583;SDS011;55557;49.220;11.150;2023-02-28T01:20:38;4.53;;;3.30;;
68583;SDS011;55557;49.220;11.150;2023-02-28T01:23:04;4.70;;;3.33;;
68583;SDS011;55557;49.220;11.150;2023-02-28T01:25:30;3.80;;;2.70;;
68583;SDS011;55557;49.220;11.150;2023-02-28T01:27:56;4.40;;;3.23;;
68583;SDS011;55557;49.220;11.150;2023-02-28T01:30:22;4.17;;;2.80;;
68583;SDS011;55557;49.220;11.150;2023-02-28T01:32:48;4.00;;;3.10;;
68583;SDS011;55557;49.220;11.150;2023-02-28T01:35:16;4.67;;;3.80;;
68583;SDS011;55557;49.220;11.150;2023-02-28T01:37:42;4.73;;;3.40;;
68583;SDS011;55557;49.220;11.150;2023-02-28T01:40:08;2.93;;;2.60;;
68583;SDS011;55557;49.220;11.150;2023-02-28T01:42:34;4.77;;;3.47;;
68583;SDS011;55557;49.220;11.150;2023-02-28T01:47:34;4.67;;;3.57;;
68583;SDS011;55557;49.220;11.150;2023-02-28T01:50:01;5.57;;;3.37;;
68583;SDS011;55557;49.220;11.150;2023-02-28T01:52:27;5.93;;;3.70;;
68583;SDS011;55557;49.220;11.150;2023-02-28T01:54:55;4.73;;;3.20;;
68583;SDS011;55557;49.220;11.150;2023-02-28T01:57:22;4.37;;;3.57;;
68583;SDS011;55557;49.220;11.150;2023-02-28T02:02:16;4.07;;;3.20;;
68583;SDS011;55557;49.220;11.150;2023-02-28T02:04:50;4.23;;;3.00;;
68583;SDS011;55557;49.220;11.150;2023-02-28T02:07:16;3.87;;;3.43;;
68583;SDS011;55557;49.220;11.150;2023-02-28T02:09:42;6.30;;;3.47;;
68583;SDS011;55557;49.220;11.150;2023-02-28T02:12:12;4.07;;;3.20;;
68583;SDS011;55557;49.220;11.150;2023-02-28T02:14:49;7.00;;;3.27;;
68583;SDS011;55557;49.220;11.150;2023-02-28T02:17:28;5.13;;;3.60;;
68583;SDS011;55557;49.220;11.150;2023-02-28T02:25:42;8.00;;;3.47;;
68583;SDS011;55557;49.220;11.150;2023-02-28T02:31:03;5.97;;;3.83;;
68583;SDS011;55557;49.220;11.150;2023-02-28T02:36:05;4.23;;;2.60;;
68583;SDS011;55557;49.220;11.150;2023-02-28T02:38:34;5.40;;;3.40;;
68583;SDS011;55557;49.220;11.150;2023-02-28T02:41:04;4.33;;;3.70;;
68583;SDS011;55557;49.220;11.150;2023-02-28T02:43:36;5.93;;;3.60;;
68583;SDS011;55557;49.220;11.150;2023-02-28T02:46:14;4.90;;;3.67;;
68583;SDS011;55557;49.220;11.150;2023-02-28T02:48:41;4.73;;;3.07;;
68583;SDS011;55557;49.220;11.150;2023-02-28T02:51:11;4.07;;;3.17;;
68583;SDS011;55557;49.220;11.150;2023-02-28T02:53:39;7.13;;;3.93;;
68583;SDS011;55557;49.220;11.150;2023-02-28T02:56:07;4.47;;;3.50;;
68583;SDS011;55557;49.220;11.150;2023-02-28T02:58:35;5.03;;;3.40;;
68583;SDS011;55557;49.220;11.150;2023-02-28T03:01:07;4.33;;;3.40;;
68583;SDS011;55557;49.220;11.150;2023-02-28T03:03:34;5.60;;;4.00;;
68583;SDS011;55557;49.220;11.150;2023-02-28T03:06:01;5.67;;;3.80;;
68583;SDS011;55557;49.220;11.150;2023-02-28T03:08:28;6.57;;;3.37;;
68583;SDS011;55557;49.220;11.150;2023-02-28T03:10:56;7.13;;;3.40;;
68583;SDS011;55557;49.220;11.150;2023-02-28T03:16:15;5.40;;;3.70;;
68583;SDS011;55557;49.220;11.150;2023-02-28T03:18:53;4.03;;;3.00;;
68583;SDS011;55557;49.220;11.150;2023-02-28T03:26:27;5.40;;;4.13;;
68583;SDS011;55557;49.220;11.150;2023-02-28T03:29:02;6.63;;;3.53;;
68583;SDS011;55557;49.220;11.150;2023-02-28T03:31:39;6.47;;;4.23;;
68583;SDS011;55557;49.220;11.150;2023-02-28T03:34:17;6.10;;;4.57;;
68583;SDS011;55557;49.220;11.150;2023-02-28T03:36:46;7.70;;;4.07;;
68583;SDS011;55557;49.220;11.150;2023-02-28T03:39:35;6.87;;;4.10;;
68583;SDS011;55557;49.220;11.150;2023-02-28T03:42:07;5.87;;;3.80;;
68583;SDS011;55557;49.220;11.150;2023-02-28T03:44:35;5.20;;;4.20;;
68583;SDS011;55557;49.220;11.150;2023-02-28T03:47:13;6.10;;;4.07;;
68583;SDS011;55557;49.220;11.150;2023-02-28T03:49:46;8.80;;;3.70;;
68583;SDS011;55557;49.220;11.150;2023-02-28T03:52:13;4.57;;;3.90;;
68583;SDS011;55557;49.220;11.150;2023-02-28T03:54:41;6.13;;;4.20;;
68583;SDS011;55557;49.220;11.150;2023-02-28T03:57:13;7.83;;;5.03;;
68583;SDS011;55557;49.220;11.150;2023-02-28T03:59:43;9.33;;;4.23;;
68583;SDS011;55557;49.220;11.150;2023-02-28T04:02:10;6.37;;;4.50;;
68583;SDS011;55557;49.220;11.150;2023-02-28T04:04:37;9.40;;;4.63;;
68583;SDS011;55557;49.220;11.150;2023-02-28T04:07:07;6.73;;;4.20;;
68583;SDS011;55557;49.220;11.150;2023-02-28T04:09:34;6.40;;;4.43;;
68583;SDS011;55557;49.220;11.150;2023-02-28T04:12:00;5.90;;;4.43;;
68583;SDS011;55557;49.220;11.150;2023-02-28T04:14:26;6.53;;;4.23;;
68583;SDS011;55557;49.220;11.150;2023-02-28T04:16:52;8.50;;;5.13;;
68583;SDS011;55557;49.220;11.150;2023-02-28T04:19:18;6.67;;;4.50;;
68583;SDS011;55557;49.220;11.150;2023-02-28T04:21:46;5.70;;;4.17;;
68583;SDS011;55557;49.220;11.150;2023-02-28T04:24:13;8.77;;;4.53;;
68583;SDS011;55557;49.220;11.150;2023-02-28T04:26:40;5.43;;;4.70;;
68583;SDS011;55557;49.220;11.150;2023-02-28T04:29:08;10.07;;;4.83;;
68583;SDS011;55557;49.220;11.150;2023-02-28T04:31:35;6.53;;;4.80;;
68583;SDS011;55557;49.220;11.150;2023-02-28T04:34:01;9.97;;;5.73;;
68583;SDS011;55557;49.220;11.150;2023-02-28T04:36:27;7.23;;;4.77;;
68583;SDS011;55557;49.220;11.150;2023-02-28T04:38:53;8.90;;;4.60;;
68583;SDS011;55557;49.220;11.150;2023-02-28T04:41:19;6.63;;;4.70;;
68583;SDS011;55557;49.220;11.150;2023-02-28T04:43:46;8.17;;;5.40;;
68583;SDS011;55557;49.220;11.150;2023-02-28T04:46:12;10.03;;;5.00;;
68583;SDS011;55557;49.220;11.150;2023-02-28T04:48:39;5.23;;;4.33;;
68583;SDS011;55557;49.220;11.150;2023-02-28T04:51:07;8.57;;;5.33;;
68583;SDS011;55557;49.220;11.150;2023-02-28T04:53:33;7.03;;;4.53;;
68583;SDS011;55557;49.220;11.150;2023-02-28T04:55:59;8.03;;;5.37;;
68583;SDS011;55557;49.220;11.150;2023-02-28T04:58:25;8.63;;;5.37;;
68583;SDS011;55557;49.220;11.150;2023-02-28T05:00:53;8.73;;;5.27;;
68583;SDS011;55557;49.220;11.150;2023-02-28T05:03:19;8.57;;;5.47;;
68583;SDS011;55557;49.220;11.150;2023-02-28T05:05:47;9.37;;;6.37;;
68583;SDS011;55557;49.220;11.150;2023-02-28T05:08:13;6.93;;;5.27;;
68583;SDS011;55557;49.220;11.150;2023-02-28T05:10:39;9.20;;;6.13;;
68583;SDS011;55557;49.220;11.150;2023-02-28T05:13:05;8.03;;;5.47;;
68583;SDS011;55557;49.220;11.150;2023-02-28T05:15:31;9.83;;;6.50;;
68583;SDS011;55557;49.220;11.150;2023-02-28T05:17:57;10.93;;;6.17;;
68583;SDS011;55557;49.220;11.150;2023-02-28T05:20:23;10.93;;;5.93;;
68583;SDS011;55557;49.220;11.150;2023-02-28T05:22:49;10.13;;;6.33;;
68583;SDS011;55557;49.220;11.150;2023-02-28T05:25:17;12.50;;;6.03;;
68583;SDS011;55557;49.220;11.150;2023-02-28T05:27:44;12.20;;;7.00;;
68583;SDS011;55557;49.220;11.150;2023-02-28T05:30:10;11.37;;;5.33;;
68583;SDS011;55557;49.220;11.150;2023-02-28T05:32:37;11.57;;;7.27;;
68583;SDS011;55557;49.220;11.150;2023-02-28T05:35:05;8.10;;;5.80;;
68583;SDS011;55557;49.220;11.150;2023-02-28T05:37:31;8.73;;;6.13;;
68583;SDS011;55557;49.220;11.150;2023-02-28T05:39:57;8.40;;;5.77;;
68583;SDS011;55557;49.220;11.150;2023-02-28T05:42:25;8.23;;;5.70;;
68583;SDS011;55557;49.220;11.150;2023-02-28T05:44:51;10.63;;;5.53;;
68583;SDS011;55557;49.220;11.150;2023-02-28T05:47:17;10.20;;;6.53;;
68583;SDS011;55557;49.220;11.150;2023-02-28T05:49:45;21.80;;;9.87;;
68583;SDS011;55557;49.220;11.150;2023-02-28T05:52:11;11.97;;;7.20;;
68583;SDS011;55557;49.220;11.150;2023-02-28T05:54:37;9.83;;;6.83;;
68583;SDS011;55557;49.220;11.150;2023-02-28T05:57:03;10.23;;;5.37;;
68583;SDS011;55557;49.220;11.150;2023-02-28T05:59:29;8.97;;;5.90;;
68583;SDS011;55557;49.220;11.150;2023-02-28T06:01:55;9.67;;;4.97;;
68583;SDS011;55557;49.220;11.150;2023-02-28T06:04:22;11.30;;;5.60;;
68583;SDS011;55557;49.220;11.150;2023-02-28T06:06:48;12.13;;;6.27;;
68583;SDS011;55557;49.220;11.150;2023-02-28T06:09:14;12.43;;;7.30;;
68583;SDS011;55557;49.220;11.150;2023-02-28T06:11:41;8.30;;;7.23;;
68583;SDS011;55557;49.220;11.150;2023-02-28T06:14:07;12.67;;;6.83;;
68583;SDS011;55557;49.220;11.150;2023-02-28T06:16:38;8.90;;;5.60;;
68583;SDS011;55557;49.220;11.150;2023-02-28T06:19:04;11.33;;;5.60;;
68583;SDS011;55557;49.220;11.150;2023-02-28T06:21:30;8.50;;;5.83;;
68583;SDS011;55557;49.220;11.150;2023-02-28T06:23:57;7.93;;;6.03;;
68583;SDS011;55557;49.220;11.150;2023-02-28T06:26:23;10.10;;;6.77;;
68583;SDS011;55557;49.220;11.150;2023-02-28T06:28:49;9.17;;;6.23;;
68583;SDS011;55557;49.220;11.150;2023-02-28T06:31:16;10.83;;;7.30;;
68583;SDS011;55557;49.220;11.150;2023-02-28T06:33:43;10.57;;;6.93;;
68583;SDS011;55557;49.220;11.150;2023-02-28T06:36:10;8.37;;;6.07;;
68583;SDS011;55557;49.220;11.150;2023-02-28T06:38:36;8.60;;;6.53;;
68583;SDS011;55557;49.220;11.150;2023-02-28T06:41:03;10.23;;;7.13;;
68583;SDS011;55557;49.220;11.150;2023-02-28T06:43:30;10.53;;;6.93;;
68583;SDS011;55557;49.220;11.150;2023-02-28T06:45:57;11.13;;;7.20;;
68583;SDS011;55557;49.220;11.150;2023-02-28T06:48:23;11.30;;;7.17;;
68583;SDS011;55557;49.220;11.150;2023-02-28T06:50:50;9.80;;;6.70;;
68583;SDS011;55557;49.220;11.150;2023-02-28T06:53:16;11.07;;;6.87;;
68583;SDS011;55557;49.220;11.150;2023-02-28T06:55:42;12.70;;;7.43;;
68583;SDS011;55557;49.220;11.150;2023-02-28T06:58:08;12.47;;;7.63;;
68583;SDS011;55557;49.220;11.150;2023-02-28T07:00:43;10.43;;;6.77;;
68583;SDS011;55557;49.220;11.150;2023-02-28T07:03:09;13.60;;;6.67;;
68583;SDS011;55557;49.220;11.150;2023-02-28T07:05:43;7.90;;;5.97;;
68583;SDS011;55557;49.220;11.150;2023-02-28T07:08:09;13.23;;;7.27;;
68583;SDS011;55557;49.220;11.150;2023-02-28T07:10:44;10.13;;;6.90;;
68583;SDS011;55557;49.220;11.150;2023-02-28T07:13:11;12.20;;;6.30;;
68583;SDS011;55557;49.220;11.150;2023-02-28T07:15:39;10.37;;;6.80;;
68583;SDS011;55557;49.220;11.150;2023-02-28T07:18:05;11.73;;;7.27;;
68583;SDS011;55557;49.220;11.150;2023-02-28T07:20:31;10.37;;;6.83;;
68583;SDS011;55557;49.220;11.150;2023-02-28T07:22:57;12.73;;;6.83;;
68583;SDS011;55557;49.220;11.150;2023-02-28T07:25:23;10.73;;;7.53;;
68583;SDS011;55557;49.220;11.150;2023-02-28T07:27:50;12.00;;;6.63;;
68583;SDS011;55557;49.220;11.150;2023-02-28T07:30:16;11.47;;;6.57;;
68583;SDS011;55557;49.220;11.150;2023-02-28T07:32:42;10.93;;;7.40;;
68583;SDS011;55557;49.220;11.150;2023-02-28T07:35:08;10.63;;;7.00;;
68583;SDS011;55557;49.220;11.150;2023-02-28T07:37:34;9.27;;;6.47;;
68583;SDS011;55557;49.220;11.150;2023-02-28T07:40:04;10.10;;;6.50;;
68583;SDS011;55557;49.220;11.150;2023-02-28T07:42:32;11.00;;;6.73;;
68583;SDS011;55557;49.220;11.150;2023-02-28T07:44:58;12.87;;;7.17;;
68583;SDS011;55557;49.220;11.150;2023-02-28T07:47:24;9.93;;;6.70;;
68583;SDS011;55557;49.220;11.150;2023-02-28T07:49:50;8.97;;;6.53;;
68583;SDS011;55557;49.220;11.150;2023-02-28T07:52:16;9.80;;;5.93;;
68583;SDS011;55557;49.220;11.150;2023-02-28T07:54:42;6.83;;;6.10;;
68583;SDS011;55557;49.220;11.150;2023-02-28T07:57:08;15.53;;;6.83;;
68583;SDS011;55557;49.220;11.150;2023-02-28T07:59:34;9.87;;;6.47;;
68583;SDS011;55557;49.220;11.150;2023-02-28T08:02:00;11.20;;;6.65;;
68583;SDS011;55557;49.220;11.150;2023-02-28T08:04:26;10.53;;;6.20;;
68583;SDS011;55557;49.220;11.150;2023-02-28T08:06:53;11.87;;;6.37;;
68583;SDS011;55557;49.220;11.150;2023-02-28T08:09:21;8.80;;;6.53;;
68583;SDS011;55557;49.220;11.150;2023-02-28T08:11:47;12.50;;;7.70;;
68583;SDS011;55557;49.220;11.150;2023-02-28T08:14:13;13.83;;;6.63;;
68583;SDS011;55557;49.220;11.150;2023-02-28T08:16:39;8.63;;;6.40;;
68583;SDS011;55557;49.220;11.150;2023-02-28T08:19:05;9.70;;;6.30;;
68583;SDS011;55557;49.220;11.150;2023-02-28T08:21:31;10.73;;;6.43;;
68583;SDS011;55557;49.220;11.150;2023-02-28T08:23:57;12.70;;;8.37;;
68583;SDS011;55557;49.220;11.150;2023-02-28T08:26:23;9.97;;;7.63;;
68583;SDS011;55557;49.220;11.150;2023-02-28T08:28:50;9.17;;;6.17;;
68583;SDS011;55557;49.220;11.150;2023-02-28T08:31:16;15.17;;;7.67;;
68583;SDS011;55557;49.220;11.150;2023-02-28T08:33:42;10.20;;;6.93;;
68583;SDS011;55557;49.220;11.150;2023-02-28T08:36:09;11.53;;;6.70;;
68583;SDS011;55557;49.220;11.150;2023-02-28T08:38:36;8.43;;;6.23;;
68583;SDS011;55557;49.220;11.150;2023-02-28T08:41:03;9.93;;;6.97;;
68583;SDS011;55557;49.220;11.150;2023-02-28T08:43:32;10.17;;;6.30;;
68583;SDS011;55557;49.220;11.150;2023-02-28T08:45:58;11.47;;;6.93;;
68583;SDS011;55557;49.220;11.150;2023-02-28T08:48:24;11.40;;;6.77;;
68583;SDS011;55557;49.220;11.150;2023-02-28T08:51:00;13.13;;;8.43;;
68583;SDS011;55557;49.220;11.150;2023-02-28T08:53:27;11.80;;;7.13;;
68583;SDS011;55557;49.220;11.150;2023-02-28T08:55:57;11.23;;;6.77;;
68583;SDS011;55557;49.220;11.150;2023-02-28T08:58:23;11.03;;;6.90;;
68583;SDS011;55557;49.220;11.150;2023-02-28T09:00:50;9.93;;;7.20;;
68583;SDS011;55557;49.220;11.150;2023-02-28T09:03:16;10.10;;;6.20;;
68583;SDS011;55557;49.220;11.150;2023-02-28T09:05:51;9.50;;;6.80;;
68583;SDS011;55557;49.220;11.150;2023-02-28T09:08:17;11.30;;;7.23;;
68583;SDS011;55557;49.220;11.150;2023-02-28T09:10:43;9.87;;;7.43;;
68583;SDS011;55557;49.220;11.150;2023-02-28T09:13:09;10.83;;;6.20;;
68583;SDS011;55557;49.220;11.150;2023-02-28T09:15:36;10.37;;;6.40;;
68583;SDS011;55557;49.220;11.150;2023-02-28T09:18:02;9.33;;;6.53;;
68583;SDS011;55557;49.220;11.150;2023-02-28T09:20:28;11.27;;;6.40;;
68583;SDS011;55557;49.220;11.150;2023-02-28T09:22:54;10.80;;;6.10;;
68583;SDS011;55557;49.220;11.150;2023-02-28T09:25:21;8.07;;;6.40;;
68583;SDS011;55557;49.220;11.150;2023-02-28T09:27:47;11.90;;;7.17;;
68583;SDS011;55557;49.220;11.150;2023-02-28T09:30:13;12.07;;;6.70;;
68583;SDS011;55557;49.220;11.150;2023-02-28T09:32:42;9.57;;;6.67;;
68583;SDS011;55557;49.220;11.150;2023-02-28T09:35:16;11.20;;;7.07;;
68583;SDS011;55557;49.220;11.150;2023-02-28T09:37:42;9.73;;;6.67;;
68583;SDS011;55557;49.220;11.150;2023-02-28T09:40:09;10.40;;;6.43;;
68583;SDS011;55557;49.220;11.150;2023-02-28T09:42:35;10.50;;;7.13;;
68583;SDS011;55557;49.220;11.150;2023-02-28T09:45:02;12.80;;;7.53;;
68583;SDS011;55557;49.220;11.150;2023-02-28T09:47:31;9.47;;;6.67;;
68583;SDS011;55557;49.220;11.150;2023-02-28T09:49:59;9.93;;;6.97;;
68583;SDS011;55557;49.220;11.150;2023-02-28T09:52:29;10.87;;;7.07;;
68583;SDS011;55557;49.220;11.150;2023-02-28T09:54:58;7.50;;;6.03;;
68583;SDS011;55557;49.220;11.150;2023-02-28T09:57:42;11.03;;;6.83;;
68583;SDS011;55557;49.220;11.150;2023-02-28T10:02:57;8.50;;;6.00;;
68583;SDS011;55557;49.220;11.150;2023-02-28T10:05:37;9.83;;;6.63;;
68583;SDS011;55557;49.220;11.150;2023-02-28T10:13:04;12.33;;;7.07;;
68583;SDS011;55557;49.220;11.150;2023-02-28T10:15:32;9.30;;;6.30;;
68583;SDS011;55557;49.220;11.150;2023-02-28T10:18:01;11.37;;;7.60;;
68583;SDS011;55557;49.220;11.150;2023-02-28T10:20:29;8.20;;;6.17;;
68583;SDS011;55557;49.220;11.150;2023-02-28T10:23:02;9.93;;;6.60;;
68583;SDS011;55557;49.220;11.150;2023-02-28T10:25:32;8.07;;;5.73;;
68583;SDS011;55557;49.220;11.150;2023-02-28T10:28:01;10.13;;;6.80;;
68583;SDS011;55557;49.220;11.150;2023-02-28T10:30:30;13.27;;;7.10;;
68583;SDS011;55557;49.220;11.150;2023-02-28T10:32:56;8.77;;;6.20;;
68583;SDS011;55557;49.220;11.150;2023-02-28T10:35:23;8.00;;;5.50;;
68583;SDS011;55557;49.220;11.150;2023-02-28T10:37:54;13.67;;;7.10;;
68583;SDS011;55557;49.220;11.150;2023-02-28T10:43:00;11.50;;;6.40;;
68583;SDS011;55557;49.220;11.150;2023-02-28T10:45:27;8.80;;;5.90;;
68583;SDS011;55557;49.220;11.150;2023-02-28T10:47:58;8.97;;;5.70;;
68583;SDS011;55557;49.220;11.150;2023-02-28T10:53:09;11.63;;;6.23;;
68583;SDS011;55557;49.220;11.150;2023-02-28T10:55:39;9.93;;;6.57;;
68583;SDS011;55557;49.220;11.150;2023-02-28T10:58:18;8.70;;;6.07;;
68583;SDS011;55557;49.220;11.150;2023-02-28T11:00:46;10.87;;;6.73;;
68583;SDS011;55557;49.220;11.150;2023-02-28T11:03:28;9.77;;;6.87;;
68583;SDS011;55557;49.220;11.150;2023-02-28T11:05:54;10.03;;;6.50;;
68583;SDS011;55557;49.220;11.150;2023-02-28T11:08:20;9.63;;;6.50;;
68583;SDS011;55557;49.220;11.150;2023-02-28T11:10:48;8.13;;;5.63;;
68583;SDS011;55557;49.220;11.150;2023-02-28T11:13:18;10.50;;;5.93;;
68583;SDS011;55557;49.220;11.150;2023-02-28T11:15:51;9.67;;;5.87;;
68583;SDS011;55557;49.220;11.150;2023-02-28T11:18:20;14.07;;;6.67;;
68583;SDS011;55557;49.220;11.150;2023-02-28T11:20:48;8.60;;;5.70;;
68583;SDS011;55557;49.220;11.150;2023-02-28T11:23:15;9.13;;;6.27;;
68583;SDS011;55557;49.220;11.150;2023-02-28T11:25:46;10.10;;;6.63;;
68583;SDS011;55557;49.220;11.150;2023-02-28T11:28:24;9.80;;;5.80;;
68583;SDS011;55557;49.220;11.150;2023-02-28T11:33:32;7.27;;;5.53;;
68583;SDS011;55557;49.220;11.150;2023-02-28T11:36:00;9.23;;;5.50;;
68583;SDS011;55557;49.220;11.150;2023-02-28T11:38:27;7.50;;;5.33;;
68583;SDS011;55557;49.220;11.150;2023-02-28T11:43:37;11.77;;;6.47;;
68583;SDS011;55557;49.220;11.150;2023-02-28T11:51:12;7.17;;;5.50;;
68583;SDS011;55557;49.220;11.150;2023-02-28T11:58:47;8.20;;;5.77;;
68583;SDS011;55557;49.220;11.150;2023-02-28T12:01:19;7.23;;;5.73;;
68583;SDS011;55557;49.220;11.150;2023-02-28T12:09:17;7.90;;;5.73;;
68583;SDS011;55557;49.220;11.150;2023-02-28T12:27:24;6.80;;;5.03;;
68583;SDS011;55557;49.220;11.150;2023-02-28T12:30:03;11.27;;;5.37;;
68583;SDS011;55557;49.220;11.150;2023-02-28T12:32:36;12.47;;;5.97;;
68583;SDS011;55557;49.220;11.150;2023-02-28T12:37:31;8.77;;;5.23;;
68583;SDS011;55557;49.220;11.150;2023-02-28T12:40:04;8.70;;;5.37;;
68583;SDS011;55557;49.220;11.150;2023-02-28T12:42:32;11.80;;;6.07;;
68583;SDS011;55557;49.220;11.150;2023-02-28T12:45:01;7.20;;;5.23;;
68583;SDS011;55557;49.220;11.150;2023-02-28T12:47:28;8.00;;;5.37;;
68583;SDS011;55557;49.220;11.150;2023-02-28T12:49:58;8.23;;;6.47;;
68583;SDS011;55557;49.220;11.150;2023-02-28T12:52:35;8.83;;;5.20;;
68583;SDS011;55557;49.220;11.150;2023-02-28T12:55:05;14.70;;;5.97;;
68583;SDS011;55557;49.220;11.150;2023-02-28T12:57:35;11.43;;;6.10;;
68583;SDS011;55557;49.220;11.150;2023-02-28T13:00:13;12.13;;;6.43;;
68583;SDS011;55557;49.220;11.150;2023-02-28T13:10:11;10.00;;;6.43;;
68583;SDS011;55557;49.220;11.150;2023-02-28T13:12:46;8.07;;;5.53;;
68583;SDS011;55557;49.220;11.150;2023-02-28T13:15:17;15.20;;;6.80;;
68583;SDS011;55557;49.220;11.150;2023-02-28T13:17:50;11.53;;;6.20;;
68583;SDS011;55557;49.220;11.150;2023-02-28T13:20:21;9.83;;;5.77;;
68583;SDS011;55557;49.220;11.150;2023-02-28T13:22:49;9.17;;;6.57;;
68583;SDS011;55557;49.220;11.150;2023-02-28T13:27:50;11.10;;;5.83;;
68583;SDS011;55557;49.220;11.150;2023-02-28T13:35:48;7.30;;;5.67;;
68583;SDS011;55557;49.220;11.150;2023-02-28T13:38:33;10.67;;;6.83;;
68583;SDS011;55557;49.220;11.150;2023-02-28T13:41:37;8.90;;;5.80;;
68583;SDS011;55557;49.220;11.150;2023-02-28T13:44:17;10.63;;;5.97;;
68583;SDS011;55557;49.220;11.150;2023-02-28T13:51:45;9.33;;;6.33;;
68583;SDS011;55557;49.220;11.150;2023-02-28T13:57:42;9.53;;;5.90;;
68583;SDS011;55557;49.220;11.150;2023-02-28T14:00:08;11.47;;;5.90;;
68583;SDS011;55557;49.220;11.150;2023-02-28T14:05:18;7.47;;;5.90;;
68583;SDS011;55557;49.220;11.150;2023-02-28T14:07:50;8.13;;;5.83;;
68583;SDS011;55557;49.220;11.150;2023-02-28T14:15:26;8.80;;;6.13;;
68583;SDS011;55557;49.220;11.150;2023-02-28T14:17:54;11.63;;;6.43;;
68583;SDS011;55557;49.220;11.150;2023-02-28T14:20:21;8.70;;;6.13;;
68583;SDS011;55557;49.220;11.150;2023-02-28T14:25:40;9.77;;;6.90;;
68583;SDS011;55557;49.220;11.150;2023-02-28T14:28:17;10.27;;;5.73;;
68583;SDS011;55557;49.220;11.150;2023-02-28T14:33:25;9.57;;;6.40;;
68583;SDS011;55557;49.220;11.150;2023-02-28T14:38:23;11.63;;;5.67;;
68583;SDS011;55557;49.220;11.150;2023-02-28T14:40:51;11.23;;;6.57;;
68583;SDS011;55557;49.220;11.150;2023-02-28T14:43:22;8.63;;;5.80;;
68583;SDS011;55557;49.220;11.150;2023-02-28T14:45:49;9.63;;;5.97;;
68583;SDS011;55557;49.220;11.150;2023-02-28T14:48:16;14.83;;;6.27;;
68583;SDS011;55557;49.220;11.150;2023-02-28T14:50:48;11.93;;;6.17;;
68583;SDS011;55557;49.220;11.150;2023-02-28T14:53:15;7.83;;;5.77;;
68583;SDS011;55557;49.220;11.150;2023-02-28T14:55:44;7.90;;;6.30;;
68583;SDS011;55557;49.220;11.150;2023-02-28T14:58:24;9.00;;;5.83;;
68583;SDS011;55557;49.220;11.150;2023-02-28T15:00:51;8.20;;;6.00;;
68583;SDS011;55557;49.220;11.150;2023-02-28T15:03:29;10.70;;;6.37;;
68583;SDS011;55557;49.220;11.150;2023-02-28T15:05:56;9.33;;;5.87;;
68583;SDS011;55557;49.220;11.150;2023-02-28T15:08:23;9.63;;;6.30;;
68583;SDS011;55557;49.220;11.150;2023-02-28T15:10:57;11.53;;;5.40;;
68583;SDS011;55557;49.220;11.150;2023-02-28T15:13:23;11.67;;;6.13;;
68583;SDS011;55557;49.220;11.150;2023-02-28T15:15:56;10.27;;;6.40;;
68583;SDS011;55557;49.220;11.150;2023-02-28T15:21:15;9.40;;;6.00;;
68583;SDS011;55557;49.220;11.150;2023-02-28T15:23:42;8.17;;;5.63;;
68583;SDS011;55557;49.220;11.150;2023-02-28T15:26:11;10.30;;;6.73;;
68583;SDS011;55557;49.220;11.150;2023-02-28T15:28:38;8.87;;;5.70;;
68583;SDS011;55557;49.220;11.150;2023-02-28T15:31:16;8.70;;;5.90;;
68583;SDS011;55557;49.220;11.150;2023-02-28T15:33:54;9.43;;;6.20;;
68583;SDS011;55557;49.220;11.150;2023-02-28T15:36:20;8.77;;;6.20;;
68583;SDS011;55557;49.220;11.150;2023-02-28T15:38:50;7.90;;;5.70;;
68583;SDS011;55557;49.220;11.150;2023-02-28T15:46:37;9.13;;;6.40;;
68583;SDS011;55557;49.220;11.150;2023-02-28T15:49:12;10.70;;;6.63;;
68583;SDS011;55557;49.220;11.150;2023-02-28T15:51:40;10.07;;;6.30;;
68583;SDS011;55557;49.220;11.150;2023-02-28T15:54:07;7.67;;;6.20;;
68583;SDS011;55557;49.220;11.150;2023-02-28T15:56:44;9.57;;;6.37;;
68583;SDS011;55557;49.220;11.150;2023-02-28T15:59:14;8.73;;;6.07;;
68583;SDS011;55557;49.220;11.150;2023-02-28T16:01:41;9.23;;;6.27;;
68583;SDS011;55557;49.220;11.150;2023-02-28T16:04:17;9.00;;;6.40;;
68583;SDS011;55557;49.220;11.150;2023-02-28T16:09:24;10.13;;;5.90;;
68583;SDS011;55557;49.220;11.150;2023-02-28T16:11:53;10.23;;;5.97;;
68583;SDS011;55557;49.220;11.150;2023-02-28T16:14:20;10.47;;;6.47;;
68583;SDS011;55557;49.220;11.150;2023-02-28T16:16:49;9.00;;;6.23;;
68583;SDS011;55557;49.220;11.150;2023-02-28T16:19:16;8.10;;;5.63;;
68583;SDS011;55557;49.220;11.150;2023-02-28T16:21:42;10.57;;;6.03;;
68583;SDS011;55557;49.220;11.150;2023-02-28T16:24:08;11.13;;;5.93;;
68583;SDS011;55557;49.220;11.150;2023-02-28T16:26:34;8.67;;;6.23;;
68583;SDS011;55557;49.220;11.150;2023-02-28T16:29:02;8.67;;;5.93;;
68583;SDS011;55557;49.220;11.150;2023-02-28T16:31:28;8.13;;;5.90;;
68583;SDS011;55557;49.220;11.150;2023-02-28T16:33:55;9.67;;;5.93;;
68583;SDS011;55557;49.220;11.150;2023-02-28T16:36:22;8.37;;;6.47;;
68583;SDS011;55557;49.220;11.150;2023-02-28T16:38:51;8.40;;;6.07;;
68583;SDS011;55557;49.220;11.150;2023-02-28T16:41:19;10.27;;;6.10;;
68583;SDS011;55557;49.220;11.150;2023-02-28T16:43:46;8.57;;;6.50;;